createdAt,value
2022-09-24T00:04:20.209Z,20.80
2022-09-24T00:09:24.010Z,21.77
2022-09-24T00:14:27.176Z,19.90
2022-09-24T00:19:30.828Z,24.03
2022-09-24T00:24:52.607Z,24.60
2022-09-24T00:29:55.547Z,24.43
2022-09-24T00:34:58.525Z,23.70
2022-09-24T00:40:02.058Z,29.63
2022-09-24T00:45:05.865Z,24.77
2022-09-24T00:50:34.005Z,26.93
2022-09-24T00:55:39.348Z,22.50
2022-09-24T01:00:46.248Z,23.53
2022-09-24T01:05:50.188Z,21.53
2022-09-24T01:11:13.047Z,26.77
2022-09-24T01:16:42.068Z,22.97
2022-09-24T01:22:02.297Z,24.20
2022-09-24T01:27:26.955Z,21.63
2022-09-24T01:32:38.948Z,22.13
2022-09-24T01:37:45.777Z,22.17
2022-09-24T01:42:51.513Z,20.80
2022-09-24T01:47:54.699Z,23.37
2022-09-24T01:53:09.156Z,23.57
2022-09-24T01:58:19.877Z,22.83
2022-09-24T02:03:43.517Z,19.43
2022-09-24T02:08:48.879Z,22.40
2022-09-24T02:14:12.119Z,24.20
2022-09-24T02:19:23.003Z,20.27
2022-09-24T02:24:48.577Z,26.23
2022-09-24T02:29:51.907Z,21.00
2022-09-24T02:35:00.089Z,23.17
2022-09-24T02:40:06.403Z,21.47
2022-09-24T02:45:10.423Z,23.50
2022-09-24T02:50:13.657Z,26.63
2022-09-24T02:55:16.841Z,29.07
2022-09-24T03:00:21.628Z,27.47
2022-09-24T03:05:24.859Z,27.07
2022-09-24T03:10:27.979Z,25.27
2022-09-24T03:15:31.187Z,24.77
2022-09-24T03:20:34.155Z,24.93
2022-09-24T03:25:37.637Z,23.97
2022-09-24T03:30:59.063Z,27.90
2022-09-24T03:36:08.972Z,23.30
2022-09-24T03:41:13.807Z,24.87
2022-09-24T03:46:17.991Z,27.93
2022-09-24T03:51:21.116Z,26.70
2022-09-24T03:56:24.908Z,28.47
2022-09-24T04:01:29.701Z,29.60
2022-09-24T04:06:33.035Z,28.33
2022-09-24T04:11:37.318Z,30.93
2022-09-24T04:16:40.624Z,30.20
2022-09-24T04:21:44.258Z,25.30
2022-09-24T04:26:47.349Z,25.60
2022-09-24T04:31:50.491Z,29.07
2022-09-24T04:36:54.198Z,27.30
2022-09-24T04:41:57.269Z,30.67
2022-09-24T04:47:03.077Z,26.40
2022-09-24T04:52:06.298Z,26.50
2022-09-24T04:57:09.606Z,27.43
2022-09-24T05:02:13.095Z,26.17
2022-09-24T05:07:16.339Z,27.00
2022-09-24T05:12:21.174Z,26.33
2022-09-24T05:17:24.380Z,25.83
2022-09-24T05:22:28.563Z,28.50
2022-09-24T05:27:31.630Z,30.27
2022-09-24T05:32:37.047Z,29.03
2022-09-24T05:37:40.362Z,28.77
2022-09-24T05:42:43.467Z,29.97
2022-09-24T05:47:47.177Z,31.03
2022-09-24T05:52:50.469Z,30.83
2022-09-24T05:57:54.363Z,30.13
2022-09-24T06:03:16.241Z,31.47
2022-09-24T06:08:21.249Z,27.73
2022-09-24T06:13:24.346Z,25.23
2022-09-24T06:18:27.688Z,29.20
2022-09-24T06:23:31.666Z,27.90
2022-09-24T06:28:35.669Z,29.57
2022-09-24T06:33:39.226Z,27.47
2022-09-24T06:38:42.498Z,31.37
2022-09-24T06:43:46.079Z,29.27
2022-09-24T06:48:49.740Z,29.17
2022-09-24T06:53:53.342Z,27.50
2022-09-24T06:58:56.708Z,24.47
2022-09-24T07:03:59.940Z,27.77
2022-09-24T07:09:03.239Z,28.90
2022-09-24T07:14:06.386Z,28.07
2022-09-24T07:19:10.188Z,26.90
2022-09-24T07:24:16.460Z,23.57
2022-09-24T07:29:19.917Z,27.70
2022-09-24T07:34:22.978Z,24.33
2022-09-24T07:39:27.180Z,24.17
2022-09-24T07:44:34.038Z,22.20
2022-09-24T07:49:39.481Z,23.23
2022-09-24T07:54:42.985Z,25.00
2022-09-24T07:59:46.273Z,19.90
2022-09-24T08:04:49.533Z,17.40
2022-09-24T08:09:52.469Z,17.73
2022-09-24T08:14:55.535Z,17.63
2022-09-24T08:19:59.070Z,16.27
2022-09-24T08:25:03.889Z,16.50
2022-09-24T08:30:07.800Z,16.07
2022-09-24T08:35:11.428Z,14.00
2022-09-24T08:40:28.584Z,14.93
2022-09-24T08:46:00.719Z,14.53
2022-09-24T08:51:08.876Z,15.03
2022-09-24T08:56:12.858Z,15.60
2022-09-24T09:01:40.073Z,17.33
2022-09-24T09:07:22.187Z,14.17
2022-09-24T09:12:38.537Z,12.37
2022-09-24T09:18:00.705Z,11.70
2022-09-24T09:23:22.633Z,12.93
2022-09-24T09:28:30.107Z,13.73
2022-09-24T09:33:36.090Z,9.77
2022-09-24T09:38:43.291Z,11.13
2022-09-24T09:43:46.939Z,11.50
2022-09-24T09:48:56.877Z,10.30
2022-09-24T09:54:02.396Z,12.53
2022-09-24T09:59:11.667Z,11.13
2022-09-24T10:04:36.550Z,9.97
2022-09-24T10:09:42.424Z,12.47
2022-09-24T10:14:57.016Z,12.73
2022-09-24T10:20:02.879Z,9.53
2022-09-24T10:25:07.529Z,8.07
2022-09-24T10:30:34.439Z,10.33
2022-09-24T10:35:39.361Z,12.32
2022-09-24T10:40:42.879Z,8.52
2022-09-24T10:45:58.453Z,9.73
2022-09-24T10:51:29.187Z,17.45
2022-09-24T10:56:46.630Z,9.85
2022-09-24T11:02:03.522Z,7.88
2022-09-24T11:07:25.080Z,7.95
2022-09-24T11:12:54.303Z,10.85
2022-09-24T11:18:10.327Z,8.25
2022-09-24T11:23:30.165Z,4.90
2022-09-24T11:28:42.735Z,5.40
2022-09-24T11:34:13.258Z,3.40
2022-09-24T11:39:36.669Z,5.97
2022-09-24T11:44:58.703Z,4.00
2022-09-24T11:50:35.519Z,5.13
2022-09-24T11:55:58.500Z,5.00
2022-09-24T12:01:11.354Z,5.47
2022-09-24T12:06:19.761Z,5.53
2022-09-24T12:11:41.763Z,4.60
2022-09-24T12:16:48.398Z,3.75
2022-09-24T12:21:54.182Z,8.90
2022-09-24T12:27:01.621Z,10.00
2022-09-24T12:32:34.756Z,4.70
2022-09-24T12:37:41.787Z,4.95
2022-09-24T12:42:55.099Z,5.15
2022-09-24T12:48:01.544Z,4.10
2022-09-24T12:53:25.689Z,5.60
2022-09-24T12:58:44.636Z,3.83
2022-09-24T13:04:01.891Z,3.40
2022-09-24T13:09:41.329Z,5.15
2022-09-24T13:14:55.888Z,4.57
2022-09-24T13:20:03.734Z,4.30
2022-09-24T13:25:10.287Z,4.55
2022-09-24T13:30:19.068Z,4.38
2022-09-24T13:35:29.459Z,4.43
2022-09-24T13:40:39.389Z,4.30
2022-09-24T13:45:45.832Z,5.93
2022-09-24T13:50:53.294Z,3.42
2022-09-24T13:55:59.967Z,4.97
2022-09-24T14:01:11.871Z,2.90
2022-09-24T14:06:22.336Z,2.92
2022-09-24T14:11:26.831Z,2.95
2022-09-24T14:16:29.887Z,3.65
2022-09-24T14:21:47.506Z,3.60
2022-09-24T14:27:04.120Z,8.57
2022-09-24T14:32:08.250Z,3.08
2022-09-24T14:37:24.733Z,4.50
2022-09-24T14:42:39.598Z,5.20
2022-09-24T14:47:44.459Z,5.37
2022-09-24T14:52:57.648Z,6.95
2022-09-24T14:58:01.170Z,5.43
2022-09-24T15:03:21.664Z,11.83
2022-09-24T15:08:29.190Z,9.13
2022-09-24T15:13:38.431Z,14.63
2022-09-24T15:18:42.833Z,11.13
2022-09-24T15:23:46.158Z,17.23
2022-09-24T15:28:49.368Z,9.73
2022-09-24T15:33:53.866Z,11.23
2022-09-24T15:39:02.447Z,6.67
2022-09-24T15:44:06.954Z,9.03
2022-09-24T15:49:10.132Z,12.30
2022-09-24T15:54:13.198Z,7.40
2022-09-24T15:59:16.409Z,6.90
2022-09-24T16:04:22.278Z,7.57
2022-09-24T16:09:25.321Z,7.20
2022-09-24T16:14:28.769Z,7.23
2022-09-24T16:19:32.518Z,11.03
2022-09-24T16:24:36.181Z,12.57
2022-09-24T16:29:39.729Z,11.30
2022-09-24T16:34:43.252Z,11.70
2022-09-24T16:39:46.787Z,18.43
2022-09-24T16:44:50.380Z,18.83
2022-09-24T16:49:53.729Z,21.57
2022-09-24T16:54:56.849Z,17.83
2022-09-24T17:00:01.932Z,18.07
2022-09-24T17:05:05.736Z,15.23
2022-09-24T17:10:16.215Z,16.23
2022-09-24T17:15:21.202Z,19.27
2022-09-24T17:20:24.919Z,17.70
2022-09-24T17:25:28.548Z,17.60
2022-09-24T17:30:31.481Z,15.23
2022-09-24T17:35:34.449Z,14.27
2022-09-24T17:40:37.736Z,14.57
2022-09-24T17:45:40.684Z,15.80
2022-09-24T17:50:43.900Z,20.33
2022-09-24T17:55:51.814Z,19.07
2022-09-24T18:00:56.818Z,18.53
2022-09-24T18:06:01.556Z,19.53
2022-09-24T18:11:10.808Z,18.23
2022-09-24T18:16:17.416Z,16.23
2022-09-24T18:21:23.352Z,24.17
2022-09-24T18:26:35.718Z,21.97
2022-09-24T18:31:39.412Z,24.67
2022-09-24T18:36:44.803Z,22.23
2022-09-24T18:41:48.682Z,28.87
2022-09-24T18:46:51.719Z,16.23
2022-09-24T18:51:55.190Z,19.67
2022-09-24T18:56:58.223Z,15.33
2022-09-24T19:02:01.430Z,14.20
2022-09-24T19:07:06.219Z,14.93
2022-09-24T19:12:10.049Z,14.80
2022-09-24T19:17:15.109Z,16.40
2022-09-24T19:22:22.499Z,30.87
2022-09-24T19:27:25.585Z,26.53
2022-09-24T19:32:29.034Z,21.23
2022-09-24T19:37:34.926Z,24.23
2022-09-24T19:42:38.659Z,30.50
2022-09-24T19:47:42.078Z,30.23
2022-09-24T19:52:45.874Z,25.37
2022-09-24T19:57:49.390Z,22.73
2022-09-24T20:02:53.115Z,33.53
2022-09-24T20:07:56.402Z,23.63
2022-09-24T20:12:59.789Z,20.97
2022-09-24T20:18:03.448Z,20.83
2022-09-24T20:23:09.099Z,20.00
2022-09-24T20:28:17.093Z,18.27
2022-09-24T20:33:20.942Z,17.77
2022-09-24T20:38:24.035Z,16.47
2022-09-24T20:43:28.118Z,18.03
2022-09-24T20:48:32.850Z,17.70
2022-09-24T20:53:37.165Z,18.80
2022-09-24T20:58:40.951Z,16.47
2022-09-24T21:03:45.721Z,25.93
2022-09-24T21:08:49.954Z,22.30
2022-09-24T21:13:56.805Z,19.57
2022-09-24T21:19:05.289Z,18.83
2022-09-24T21:24:13.130Z,20.07
2022-09-24T21:29:19.259Z,18.13
2022-09-24T21:34:22.678Z,21.90
2022-09-24T21:39:29.080Z,21.43
2022-09-24T21:44:34.388Z,24.67
2022-09-24T21:49:37.779Z,22.57
2022-09-24T21:54:41.251Z,29.33
2022-09-24T22:00:04.502Z,23.60
2022-09-24T22:05:07.990Z,22.90
2022-09-24T22:10:11.024Z,23.20
2022-09-24T22:15:14.109Z,26.23
2022-09-24T22:20:17.107Z,24.43
2022-09-24T22:25:20.528Z,23.47
2022-09-24T22:30:24.290Z,20.77
2022-09-24T22:35:46.500Z,24.23
2022-09-24T22:40:50.197Z,23.00
2022-09-24T22:46:11.501Z,22.87
2022-09-24T22:51:15.467Z,24.57
2022-09-24T22:56:22.110Z,25.37
2022-09-24T23:01:39.705Z,29.10
2022-09-24T23:06:44.030Z,31.20
2022-09-24T23:11:47.260Z,27.53
2022-09-24T23:16:50.460Z,31.33
2022-09-24T23:21:53.505Z,29.73
2022-09-24T23:26:56.658Z,32.13
2022-09-24T23:32:00.128Z,29.27
2022-09-24T23:37:03.399Z,30.80
2022-09-24T23:42:07.983Z,29.63
2022-09-24T23:47:11.156Z,31.87
2022-09-24T23:52:14.577Z,30.57
2022-09-24T23:57:18.568Z,34.37
